Time;durP1;ratioP1;P1;durP2;ratioP2;P2;SDS_P1;SDS_P2;PMS_P1;PMS_P2;Temp;Humidity;BMP_temperature;BMP_pressure;BME280_temperature;BME280_humidity;BME280_pressure;Samples;Min_cycle;Max_cycle;Signal;HPM_P1;HPM_P2
2023/01/17 00:01:18;;;;;;;0.73;0.50;;;8.10;56.70;;;;;;4946596;28;20059;-50
2023/01/17 00:12:00;;;;;;;;;;;8.10;56.80;;;;;;4962795;28;20439;-51
2023/01/17 00:14:28;;;;;;;0.98;0.70;;;8.10;56.90;;;;;;4946583;28;19922;-52
2023/01/17 00:16:55;;;;;;;1.00;0.47;;;8.10;56.80;;;;;;4952252;28;20050;-47
2023/01/17 01:34:17;;;;;;;3.63;0.68;;;7.80;55.70;;;;;;4989191;28;20047;-52
2023/01/17 01:36:44;;;;;;;3.80;0.52;;;7.80;55.60;;;;;;4954866;28;20047;-53
2023/01/17 01:39:12;;;;;;;2.25;0.60;;;7.80;55.60;;;;;;4951092;28;20596;-50
2023/01/17 01:41:40;;;;;;;2.35;0.43;;;7.70;55.30;;;;;;4951787;28;20050;-51
2023/01/17 01:44:40;;;;;;;1.50;0.43;;;7.80;55.40;;;;;;4951125;28;20063;-51
2023/01/17 01:47:09;;;;;;;2.78;0.45;;;7.70;55.20;;;;;;4941640;28;20052;-49
2023/01/17 01:49:37;;;;;;;1.58;0.60;;;7.70;55.30;;;;;;4953956;28;20050;-50
2023/01/17 01:52:07;;;;;;;2.15;0.38;;;7.70;55.10;;;;;;4957253;28;20055;-51
2023/01/17 01:54:40;;;;;;;2.75;0.50;;;7.70;55.30;;;;;;4952098;28;20059;-50
2023/01/17 01:57:11;;;;;;;2.78;0.57;;;7.70;55.50;;;;;;4954671;28;20066;-59
2023/01/17 01:59:44;;;;;;;2.90;0.60;;;7.70;56.00;;;;;;4957414;28;20062;-55
2023/01/17 02:02:11;;;;;;;1.00;0.20;;;7.70;56.20;;;;;;4954766;28;20054;-53
2023/01/17 02:04:39;;;;;;;2.78;0.50;;;7.70;56.30;;;;;;4960506;28;20063;-50
2023/01/17 02:07:12;;;;;;;0.80;0.40;;;7.70;56.20;;;;;;4980015;28;20059;-53
2023/01/17 02:09:40;;;;;;;1.98;0.60;;;7.70;55.90;;;;;;4951177;28;20063;-52
2023/01/17 02:12:08;;;;;;;3.33;0.70;;;7.70;56.00;;;;;;4948806;28;20070;-51
2023/01/17 02:14:36;;;;;;;1.52;0.60;;;7.70;56.10;;;;;;4954826;28;20043;-51
2023/01/17 02:17:14;;;;;;;3.83;0.60;;;7.80;56.20;;;;;;4946113;28;20048;-52
2023/01/17 02:20:17;;;;;;;1.77;0.73;;;7.80;56.20;;;;;;4952362;28;20155;-51
2023/01/17 02:23:29;;;;;;;3.15;0.93;;;7.70;55.90;;;;;;4946872;28;20059;-48
2023/01/17 02:26:21;;;;;;;5.05;0.90;;;7.70;55.70;;;;;;4974245;28;20058;-50
2023/01/17 02:29:09;;;;;;;2.25;0.77;;;7.80;55.60;;;;;;4979891;28;20062;-49
2023/01/17 02:31:43;;;;;;;7.82;0.90;;;7.70;55.60;;;;;;4959730;28;20073;-51
2023/01/17 02:34:16;;;;;;;1.35;0.75;;;7.70;55.50;;;;;;4954833;28;20051;-49
2023/01/17 02:36:49;;;;;;;1.85;0.77;;;7.70;55.60;;;;;;4948554;28;20969;-49
2023/01/17 02:39:21;;;;;;;4.80;1.20;;;7.70;55.50;;;;;;4954471;28;20062;-53
2023/01/17 02:41:54;;;;;;;4.32;1.00;;;7.70;55.30;;;;;;4949240;28;20051;-53
2023/01/17 02:44:22;;;;;;;2.95;0.93;;;7.70;55.30;;;;;;4949498;28;20491;-51
2023/01/17 02:46:53;;;;;;;6.47;1.23;;;7.70;55.50;;;;;;4945664;28;20058;-52
2023/01/17 02:49:24;;;;;;;6.97;1.20;;;7.70;55.30;;;;;;4951548;28;20062;-50
2023/01/17 02:52:05;;;;;;;2.80;0.90;;;7.70;55.10;;;;;;4952649;28;20490;-51
2023/01/17 02:54:53;;;;;;;5.45;1.42;;;7.70;55.10;;;;;;4950602;28;20058;-50
2023/01/17 02:57:42;;;;;;;3.33;0.95;;;7.70;55.00;;;;;;4957515;28;20059;-47
2023/01/17 03:00:20;;;;;;;5.22;1.02;;;7.60;54.70;;;;;;4953506;28;20058;-51
2023/01/17 03:02:58;;;;;;;3.78;1.13;;;7.70;54.70;;;;;;4957377;28;20054;-48
2023/01/17 03:05:31;;;;;;;2.95;0.93;;;7.60;54.40;;;;;;4954289;28;20055;-48
2023/01/17 03:08:00;;;;;;;6.22;1.25;;;7.60;54.40;;;;;;4945327;28;20050;-50
2023/01/17 03:10:28;;;;;;;4.28;0.90;;;7.60;54.40;;;;;;4954010;28;20059;-50
2023/01/17 03:13:03;;;;;;;2.50;0.85;;;7.60;54.40;;;;;;4960931;28;20411;-50
2023/01/17 03:15:31;;;;;;;3.83;0.90;;;7.60;54.30;;;;;;4951363;28;20066;-47
2023/01/17 03:18:04;;;;;;;3.13;0.73;;;7.60;54.30;;;;;;4945091;28;20054;-45
2023/01/17 03:20:31;;;;;;;9.43;0.98;;;7.60;54.10;;;;;;4951453;28;20058;-46
2023/01/17 03:22:58;;;;;;;3.95;0.80;;;7.60;54.10;;;;;;4951424;28;20063;-48
2023/01/17 03:25:26;;;;;;;3.53;0.88;;;7.60;54.00;;;;;;4952351;28;20055;-47
2023/01/17 03:27:53;;;;;;;2.25;0.82;;;7.60;54.00;;;;;;4949191;28;20059;-47
2023/01/17 03:30:21;;;;;;;4.00;1.00;;;7.50;53.90;;;;;;4947855;28;20057;-51
2023/01/17 03:32:49;;;;;;;2.70;0.65;;;7.50;53.70;;;;;;4954409;28;20051;-47
2023/01/17 03:35:17;;;;;;;3.15;0.80;;;7.50;53.80;;;;;;4953197;28;20327;-49
2023/01/17 03:37:44;;;;;;;3.08;1.00;;;7.50;53.70;;;;;;4949295;28;20065;-48
2023/01/17 03:40:12;;;;;;;4.03;1.02;;;7.50;53.60;;;;;;4954214;28;20054;-46
2023/01/17 03:42:39;;;;;;;5.30;0.90;;;7.50;53.60;;;;;;4956367;28;20057;-47
2023/01/17 03:45:07;;;;;;;4.57;1.00;;;7.50;53.50;;;;;;4954658;28;20073;-48
2023/01/17 03:47:35;;;;;;;2.92;0.85;;;7.50;53.30;;;;;;4945857;28;20055;-50
2023/01/17 03:50:02;;;;;;;1.70;0.70;;;7.50;53.30;;;;;;4946053;28;20051;-47
2023/01/17 03:52:31;;;;;;;4.25;0.90;;;7.50;53.20;;;;;;4956701;28;20125;-46
2023/01/17 03:54:58;;;;;;;3.50;0.60;;;7.50;53.70;;;;;;4956908;28;20454;-51
2023/01/17 03:57:25;;;;;;;5.88;0.80;;;7.40;53.20;;;;;;4952039;28;20051;-46
2023/01/17 03:59:52;;;;;;;2.38;0.90;;;7.40;53.10;;;;;;4957809;28;20059;-47
2023/01/17 04:02:20;;;;;;;7.80;0.90;;;7.40;53.20;;;;;;4947829;28;20062;-48
2023/01/17 04:04:47;;;;;;;3.55;1.02;;;7.40;53.20;;;;;;4950001;28;20684;-48
2023/01/17 04:07:14;;;;;;;5.63;0.98;;;7.40;53.20;;;;;;4940174;28;20071;-49
2023/01/17 04:09:43;;;;;;;2.13;0.75;;;7.40;53.20;;;;;;4947227;28;20047;-48
2023/01/17 04:12:10;;;;;;;2.95;1.08;;;7.40;53.20;;;;;;4957215;28;20063;-50
2023/01/17 04:14:37;;;;;;;5.93;0.80;;;7.40;53.20;;;;;;4953385;28;20384;-46
2023/01/17 04:17:04;;;;;;;4.18;0.70;;;7.40;53.40;;;;;;4943892;28;20157;-47
2023/01/17 04:19:35;;;;;;;4.28;1.08;;;7.40;53.40;;;;;;4957480;28;20061;-48
2023/01/17 04:22:03;;;;;;;3.50;0.93;;;7.40;53.20;;;;;;4945785;28;20416;-48
2023/01/17 04:24:30;;;;;;;2.60;0.70;;;7.40;52.80;;;;;;4950854;28;20414;-47
2023/01/17 04:26:59;;;;;;;3.75;0.85;;;7.40;52.90;;;;;;4959431;28;20066;-46
2023/01/17 04:29:26;;;;;;;2.65;0.80;;;7.40;52.90;;;;;;4953005;28;20051;-48
2023/01/17 04:31:53;;;;;;;3.65;0.70;;;7.40;53.00;;;;;;4966279;28;20052;-50
2023/01/17 04:34:20;;;;;;;4.65;1.00;;;7.30;53.10;;;;;;4971059;28;20055;-45
2023/01/17 04:36:47;;;;;;;4.85;0.75;;;7.40;53.20;;;;;;4949463;28;20051;-46
2023/01/17 04:39:15;;;;;;;3.92;0.77;;;7.40;53.20;;;;;;4951308;28;20051;-49
2023/01/17 04:41:42;;;;;;;3.65;1.10;;;7.30;53.10;;;;;;4956190;28;20054;-47
2023/01/17 04:44:11;;;;;;;4.30;1.05;;;7.30;53.10;;;;;;4955747;28;20059;-46
2023/01/17 04:46:38;;;;;;;7.20;1.58;;;7.30;53.20;;;;;;4955150;28;20134;-48
2023/01/17 04:49:05;;;;;;;4.50;1.10;;;7.40;53.20;;;;;;4951815;28;20066;-45
2023/01/17 04:51:33;;;;;;;4.28;2.05;;;7.30;53.10;;;;;;4951903;28;20055;-47
2023/01/17 04:54:00;;;;;;;3.38;1.02;;;7.30;52.90;;;;;;4943158;28;20058;-46
2023/01/17 04:56:27;;;;;;;3.30;0.85;;;7.30;52.90;;;;;;4953471;28;20055;-47
2023/01/17 04:58:56;;;;;;;6.93;0.98;;;7.30;52.90;;;;;;4956196;28;20498;-47
2023/01/17 05:01:25;;;;;;;2.25;0.80;;;7.30;52.90;;;;;;4954406;28;20047;-48
2023/01/17 05:03:52;;;;;;;3.25;1.30;;;7.30;52.80;;;;;;4948127;28;20425;-49
2023/01/17 05:06:20;;;;;;;4.80;1.10;;;7.30;52.60;;;;;;4986245;28;20051;-47
2023/01/17 05:08:47;;;;;;;4.03;1.13;;;7.30;52.80;;;;;;4948950;28;20529;-48
2023/01/17 05:11:14;;;;;;;2.53;1.08;;;7.30;52.90;;;;;;4950455;28;20058;-48
2023/01/17 05:13:41;;;;;;;3.53;1.63;;;7.30;52.80;;;;;;4952957;28;20077;-47
2023/01/17 05:16:09;;;;;;;4.25;1.15;;;7.30;52.60;;;;;;4974707;28;20056;-49
2023/01/17 05:18:37;;;;;;;2.85;1.02;;;7.30;52.60;;;;;;4966709;28;20054;-49
2023/01/17 05:21:05;;;;;;;3.17;1.15;;;7.30;52.60;;;;;;4952169;28;20062;-46
2023/01/17 05:23:32;;;;;;;4.70;1.30;;;7.30;52.60;;;;;;4957475;28;20070;-52
2023/01/17 05:25:59;;;;;;;3.42;1.20;;;7.30;52.50;;;;;;4936699;28;20055;-46
2023/01/17 05:28:27;;;;;;;3.75;1.23;;;7.20;52.50;;;;;;4937370;28;20055;-48
2023/01/17 05:30:54;;;;;;;3.60;1.25;;;7.30;52.60;;;;;;4930829;28;20055;-46
2023/01/17 05:33:21;;;;;;;3.53;1.75;;;7.20;52.30;;;;;;4929115;28;20067;-47
2023/01/17 05:35:50;;;;;;;4.45;1.67;;;7.20;52.20;;;;;;4935592;28;20059;-46
2023/01/17 05:38:17;;;;;;;2.67;1.35;;;7.20;52.10;;;;;;4932086;28;20395;-49
2023/01/17 05:40:44;;;;;;;4.05;1.23;;;7.20;52.60;;;;;;4938686;28;20059;-46
2023/01/17 05:43:11;;;;;;;2.25;1.25;;;7.20;52.10;;;;;;4935092;28;20368;-51
2023/01/17 05:45:38;;;;;;;3.78;1.23;;;7.20;52.10;;;;;;4931066;28;20056;-50
2023/01/17 05:48:06;;;;;;;4.28;1.35;;;7.20;52.00;;;;;;4925566;28;20419;-46
2023/01/17 05:50:35;;;;;;;2.05;1.35;;;7.10;51.90;;;;;;4934458;28;20424;-47
2023/01/17 05:53:06;;;;;;;5.68;1.20;;;7.10;51.80;;;;;;4950074;28;20382;-47
2023/01/17 05:55:34;;;;;;;5.18;1.23;;;7.10;51.70;;;;;;4942479;28;20047;-46
2023/01/17 05:58:02;;;;;;;3.90;1.40;;;7.10;51.60;;;;;;4920491;28;20059;-48
2023/01/17 06:00:30;;;;;;;5.60;1.85;;;7.00;51.50;;;;;;4930263;28;20055;-48
2023/01/17 06:02:59;;;;;;;4.32;1.88;;;7.00;51.50;;;;;;4938105;28;20419;-46
2023/01/17 06:05:27;;;;;;;4.70;1.60;;;7.00;51.50;;;;;;4930498;28;20055;-49
2023/01/17 06:07:55;;;;;;;2.40;1.35;;;7.00;51.50;;;;;;4940140;28;20066;-46
2023/01/17 06:10:24;;;;;;;4.15;1.70;;;6.90;51.50;;;;;;4936187;28;20431;-48
2023/01/17 06:13:00;;;;;;;3.97;1.30;;;6.90;51.50;;;;;;4932540;28;20510;-47
2023/01/17 06:15:28;;;;;;;6.60;1.88;;;6.90;51.50;;;;;;4932003;28;20055;-47
2023/01/17 06:17:55;;;;;;;4.25;1.85;;;6.90;51.50;;;;;;4936142;28;20056;-46
2023/01/17 06:20:23;;;;;;;4.95;1.70;;;6.90;51.50;;;;;;4925425;28;20040;-46
2023/01/17 06:22:50;;;;;;;5.45;2.15;;;6.90;51.50;;;;;;4968197;28;20062;-47
2023/01/17 06:25:17;;;;;;;6.93;2.05;;;6.80;51.40;;;;;;4930446;28;20059;-46
2023/01/17 06:27:46;;;;;;;6.05;1.95;;;6.80;51.40;;;;;;4940604;28;20512;-48
2023/01/17 06:30:14;;;;;;;5.38;1.92;;;6.80;51.40;;;;;;4924316;28;20054;-47
2023/01/17 06:32:41;;;;;;;4.05;2.13;;;6.80;51.40;;;;;;4931809;28;20048;-50
2023/01/17 06:35:09;;;;;;;5.18;1.95;;;6.80;51.40;;;;;;4931292;28;20118;-49
2023/01/17 06:41:08;;;;;;;4.07;1.67;;;6.80;51.30;;;;;;4943631;28;20395;-46
2023/01/17 06:43:37;;;;;;;2.55;1.70;;;6.80;51.30;;;;;;4934024;28;20051;-45
2023/01/17 06:46:04;;;;;;;3.20;1.80;;;6.70;51.30;;;;;;4933677;28;20051;-45
2023/01/17 06:48:31;;;;;;;3.67;1.55;;;6.70;51.30;;;;;;4932040;28;20052;-48
2023/01/17 06:51:00;;;;;;;2.58;1.50;;;6.70;51.40;;;;;;4927790;28;20059;-48
2023/01/17 06:53:27;;;;;;;4.18;2.05;;;6.70;51.40;;;;;;4940408;28;20059;-46
2023/01/17 06:55:56;;;;;;;1.77;1.35;;;6.70;51.40;;;;;;4963965;28;20059;-47
2023/01/17 06:58:25;;;;;;;2.78;1.48;;;6.80;51.50;;;;;;4930832;28;20574;-45
2023/01/17 07:00:54;;;;;;;2.70;1.40;;;6.80;51.50;;;;;;4932032;28;20058;-49
2023/01/17 07:03:24;;;;;;;2.80;1.63;;;6.80;51.50;;;;;;4926379;28;20051;-50
2023/01/17 07:05:51;;;;;;;3.08;1.17;;;6.80;51.50;;;;;;4930545;28;20060;-49
2023/01/17 07:08:19;;;;;;;2.95;1.08;;;6.80;51.50;;;;;;4937867;28;20055;-48
2023/01/17 07:10:48;;;;;;;2.13;1.25;;;6.80;51.40;;;;;;4925264;28;20063;-46
2023/01/17 07:13:15;;;;;;;3.15;1.30;;;6.80;51.40;;;;;;4936089;28;20059;-48
2023/01/17 07:15:42;;;;;;;2.08;1.45;;;6.80;51.40;;;;;;4923619;28;20431;-48
2023/01/17 07:18:11;;;;;;;2.58;1.30;;;6.80;51.30;;;;;;4926947;28;20056;-45
2023/01/17 07:20:38;;;;;;;1.80;1.10;;;6.80;51.30;;;;;;4937359;28;20055;-46
2023/01/17 07:23:05;;;;;;;5.03;1.33;;;6.80;51.30;;;;;;4929763;28;20067;-47
2023/01/17 07:25:33;;;;;;;2.85;1.20;;;6.80;51.30;;;;;;4928498;28;20603;-48
2023/01/17 07:28:00;;;;;;;5.95;1.35;;;6.80;51.30;;;;;;4950269;28;20063;-48
2023/01/17 07:30:27;;;;;;;2.63;1.48;;;6.80;51.30;;;;;;4946114;28;20142;-49
2023/01/17 07:32:55;;;;;;;3.95;1.67;;;6.80;51.20;;;;;;4948836;28;20062;-46
2023/01/17 07:35:25;;;;;;;3.85;1.80;;;6.80;51.30;;;;;;4953556;28;20055;-46
2023/01/17 07:37:53;;;;;;;3.85;1.35;;;6.80;51.30;;;;;;4973535;28;20411;-44
2023/01/17 07:40:23;;;;;;;3.55;1.98;;;6.80;51.20;;;;;;4940865;28;20047;-44
2023/01/17 07:42:50;;;;;;;4.65;1.60;;;6.80;51.20;;;;;;4956037;28;20065;-47
2023/01/17 07:45:21;;;;;;;3.40;1.45;;;6.70;51.20;;;;;;4993044;28;20062;-48
2023/01/17 07:47:51;;;;;;;4.22;1.55;;;6.80;51.20;;;;;;4947142;28;20059;-46
2023/01/17 07:50:18;;;;;;;5.97;1.67;;;6.80;51.20;;;;;;4958374;28;20483;-47
2023/01/17 07:52:50;;;;;;;4.13;1.73;;;6.70;51.10;;;;;;4951256;28;20055;-47
2023/01/17 07:55:18;;;;;;;3.80;1.73;;;6.70;51.10;;;;;;4950057;28;20423;-49
2023/01/17 07:57:48;;;;;;;6.82;1.80;;;6.70;51.10;;;;;;4943847;28;20066;-45
2023/01/17 08:00:17;;;;;;;4.13;1.88;;;6.70;51.00;;;;;;4943851;28;20051;-48
2023/01/17 08:02:44;;;;;;;2.20;1.63;;;6.60;50.90;;;;;;4942606;28;20055;-47
2023/01/17 08:05:11;;;;;;;7.22;1.95;;;6.60;50.80;;;;;;4953927;28;20058;-48
2023/01/17 08:07:38;;;;;;;17.80;8.70;;;6.60;50.90;;;;;;4950837;28;20063;-46
2023/01/17 08:10:11;;;;;;;112.28;43.50;;;6.60;50.90;;;;;;4946420;28;20046;-45
2023/01/17 08:12:39;;;;;;;288.95;113.60;;;6.60;50.90;;;;;;4945356;28;20051;-49
2023/01/17 08:15:07;;;;;;;166.55;67.57;;;6.50;50.90;;;;;;4943346;28;20059;-49
2023/01/17 08:17:34;;;;;;;61.78;28.13;;;6.60;51.10;;;;;;4942388;28;20059;-48
2023/01/17 08:20:02;;;;;;;27.17;11.50;;;6.50;51.20;;;;;;4944813;28;20431;-48
2023/01/17 08:22:30;;;;;;;10.40;6.28;;;6.60;51.30;;;;;;4943047;28;20059;-47
2023/01/17 08:24:57;;;;;;;9.18;4.55;;;6.60;51.30;;;;;;4948431;28;20055;-49
2023/01/17 08:27:28;;;;;;;7.85;4.70;;;6.60;51.30;;;;;;4950324;28;20059;-46
2023/01/17 08:29:55;;;;;;;5.47;3.50;;;6.60;51.30;;;;;;4936156;28;20052;-46
2023/01/17 08:32:22;;;;;;;5.68;2.88;;;6.60;51.40;;;;;;4942499;28;20515;-48
2023/01/17 08:34:49;;;;;;;4.00;2.08;;;6.60;51.40;;;;;;4943033;28;20058;-47
2023/01/17 08:37:17;;;;;;;2.75;1.48;;;6.70;51.50;;;;;;4943833;28;20070;-50
2023/01/17 08:39:44;;;;;;;3.33;1.55;;;6.70;51.60;;;;;;4942431;28;20415;-51
2023/01/17 08:42:11;;;;;;;4.50;1.35;;;6.70;51.60;;;;;;4951027;28;20051;-47
2023/01/17 08:44:40;;;;;;;11.05;1.80;;;6.80;51.80;;;;;;4942622;28;20491;-45
2023/01/17 08:47:07;;;;;;;3.17;1.50;;;6.80;51.70;;;;;;4943564;28;20063;-48
2023/01/17 08:49:34;;;;;;;4.75;1.60;;;6.80;51.70;;;;;;4951832;28;20054;-47
2023/01/17 08:52:01;;;;;;;2.75;1.80;;;6.80;51.70;;;;;;4948300;28;20414;-46
2023/01/17 08:54:28;;;;;;;3.38;1.50;;;6.80;51.50;;;;;;4941602;28;20055;-48
2023/01/17 08:56:56;;;;;;;3.33;1.80;;;6.90;51.50;;;;;;4944360;28;20534;-46
2023/01/17 08:59:23;;;;;;;2.80;1.92;;;6.90;51.50;;;;;;4943142;28;20525;-46
2023/01/17 09:01:56;;;;;;;8.73;1.63;;;6.90;51.50;;;;;;4944600;28;20062;-47
2023/01/17 09:04:24;;;;;;;3.93;2.07;;;6.90;51.40;;;;;;4942946;28;20585;-48
2023/01/17 09:06:51;;;;;;;5.38;2.47;;;6.90;51.30;;;;;;4942021;28;20510;-47
2023/01/17 09:09:18;;;;;;;4.05;2.10;;;6.90;51.30;;;;;;4940452;28;20089;-45
2023/01/17 09:11:45;;;;;;;5.30;2.05;;;6.90;51.10;;;;;;4954697;28;20046;-47
2023/01/17 09:14:13;;;;;;;5.93;1.85;;;6.90;51.10;;;;;;4948033;28;20431;-47
2023/01/17 09:16:40;;;;;;;4.88;2.10;;;6.90;51.10;;;;;;4940420;28;20058;-47
2023/01/17 09:19:09;;;;;;;2.97;1.85;;;6.90;51.20;;;;;;4938325;28;20063;-50
2023/01/17 09:21:36;;;;;;;7.38;2.28;;;6.90;51.10;;;;;;4940500;28;20054;-46
2023/01/17 09:24:03;;;;;;;4.93;1.67;;;6.90;51.10;;;;;;4939197;28;20055;-47
2023/01/17 09:26:31;;;;;;;2.55;1.80;;;6.90;51.10;;;;;;4944087;28;20099;-44
2023/01/17 09:28:58;;;;;;;4.03;1.90;;;6.90;51.00;;;;;;4941990;28;20063;-46
2023/01/17 09:31:26;;;;;;;3.08;1.95;;;6.90;51.00;;;;;;4948496;28;20055;-45
2023/01/17 09:33:57;;;;;;;4.25;2.10;;;6.90;50.90;;;;;;4972078;28;20085;-48
2023/01/17 09:36:27;;;;;;;3.67;1.52;;;7.00;50.90;;;;;;4943703;28;20059;-50
2023/01/17 09:38:56;;;;;;;7.80;1.90;;;6.90;50.90;;;;;;4949480;28;20415;-48
2023/01/17 09:41:26;;;;;;;6.47;1.75;;;7.00;51.00;;;;;;4940589;28;20059;-47
2023/01/17 09:44:00;;;;;;;4.18;1.63;;;7.00;50.80;;;;;;4944574;28;20063;-46
2023/01/17 09:46:31;;;;;;;3.70;1.67;;;7.00;50.70;;;;;;4944843;28;20492;-47
2023/01/17 09:49:04;;;;;;;9.57;2.03;;;7.00;50.70;;;;;;4948286;28;20059;-49
2023/01/17 09:51:33;;;;;;;4.25;1.70;;;7.00;50.70;;;;;;4942087;28;20047;-49
2023/01/17 09:54:01;;;;;;;2.30;1.40;;;7.00;50.60;;;;;;4943558;28;20058;-44
2023/01/17 09:56:31;;;;;;;3.60;1.48;;;7.00;50.70;;;;;;4940496;28;20047;-46
2023/01/17 09:59:27;;;;;;;4.80;1.88;;;7.10;50.70;;;;;;4938943;28;20427;-45
2023/01/17 10:02:04;;;;;;;3.53;1.38;;;7.10;50.70;;;;;;4949726;28;20062;-49
2023/01/17 10:04:51;;;;;;;3.67;1.60;;;7.10;50.60;;;;;;4942084;28;20078;-48
2023/01/17 10:07:33;;;;;;;3.00;1.48;;;7.10;50.40;;;;;;4943709;28;20063;-47
2023/01/17 10:10:26;;;;;;;2.97;1.25;;;7.20;50.20;;;;;;4967424;28;20063;-48
2023/01/17 10:12:58;;;;;;;2.72;1.13;;;7.10;50.20;;;;;;4940993;28;20055;-46
2023/01/17 10:15:51;;;;;;;5.40;1.92;;;7.20;50.40;;;;;;4945572;28;21313;-49
2023/01/17 10:21:54;;;;;;;3.45;1.20;;;7.20;49.60;;;;;;4947192;28;20055;-46
2023/01/17 10:24:41;;;;;;;1.17;1.00;;;7.20;48.60;;;;;;4944594;28;20058;-49
2023/01/17 10:27:20;;;;;;;2.47;1.27;;;7.20;48.90;;;;;;4947258;28;20064;-46
2023/01/17 10:29:48;;;;;;;5.03;1.98;;;7.10;48.90;;;;;;4938667;28;20510;-48
2023/01/17 10:32:16;;;;;;;3.38;1.60;;;7.20;49.10;;;;;;4939538;28;20491;-46
2023/01/17 10:34:47;;;;;;;3.65;1.40;;;7.20;49.00;;;;;;4941635;28;20061;-45
2023/01/17 10:37:19;;;;;;;3.33;1.20;;;7.20;49.10;;;;;;4934462;28;20059;-46
2023/01/17 10:39:50;;;;;;;5.60;1.33;;;7.20;49.20;;;;;;4940143;28;20062;-47
2023/01/17 10:42:23;;;;;;;4.82;1.35;;;7.20;48.90;;;;;;4945250;28;20054;-48
2023/01/17 10:44:58;;;;;;;4.97;1.30;;;7.20;48.40;;;;;;4947724;28;20070;-45
2023/01/17 10:47:28;;;;;;;4.03;1.20;;;7.20;48.70;;;;;;4949907;28;20398;-47
2023/01/17 10:49:58;;;;;;;1.58;0.80;;;7.20;48.70;;;;;;4945509;28;20059;-47
2023/01/17 10:52:35;;;;;;;6.78;1.30;;;7.20;48.70;;;;;;4946996;28;20054;-48
2023/01/17 10:55:18;;;;;;;1.63;0.77;;;7.20;48.70;;;;;;4941521;28;20047;-46
2023/01/17 10:57:47;;;;;;;3.42;1.10;;;7.20;48.60;;;;;;4947607;28;20402;-47
2023/01/17 11:00:32;;;;;;;4.35;1.42;;;7.30;48.80;;;;;;4947477;28;20074;-45
2023/01/17 11:03:00;;;;;;;;;;;7.30;48.40;;;;;;4946237;28;20503;-47
2023/01/17 11:05:29;;;;;;;4.00;1.38;;;7.30;48.40;;;;;;4954867;28;19921;-48
2023/01/17 11:11:22;;;;;;;4.68;1.65;;;7.30;48.30;;;;;;4943617;28;20059;-49
2023/01/17 11:14:04;;;;;;;4.63;1.70;;;7.30;48.50;;;;;;4952693;28;20059;-48
2023/01/17 11:16:32;;;;;;;3.17;1.35;;;7.30;48.50;;;;;;4953941;28;20059;-46
2023/01/17 11:19:47;;;;;;;10.57;2.00;;;7.30;48.60;;;;;;4954332;28;20498;-45
2023/01/17 11:22:15;;;;;;;2.60;1.52;;;7.30;48.60;;;;;;4941110;28;20062;-46
2023/01/17 11:24:50;;;;;;;5.10;2.15;;;7.40;48.90;;;;;;4941633;28;20058;-49
2023/01/17 11:27:27;;;;;;;8.18;2.05;;;7.40;49.00;;;;;;4949679;28;20063;-48
2023/01/17 11:30:05;;;;;;;3.60;1.95;;;7.40;48.60;;;;;;4979836;28;20066;-45
2023/01/17 11:32:33;;;;;;;3.97;1.40;;;7.40;48.50;;;;;;4945211;28;20411;-45
2023/01/17 11:35:18;;;;;;;6.88;1.70;;;7.40;48.30;;;;;;4944757;28;20063;-47
2023/01/17 11:37:57;;;;;;;7.78;1.67;;;7.40;48.20;;;;;;4947592;28;20051;-50
2023/01/17 11:40:28;;;;;;;2.47;1.30;;;7.40;48.30;;;;;;4946432;28;20051;-48
2023/01/17 11:43:02;;;;;;;2.67;1.17;;;7.40;48.40;;;;;;4942515;28;20081;-48
2023/01/17 11:45:30;;;;;;;;;;;7.40;48.60;;;;;;4947253;28;20471;-48
2023/01/17 11:48:13;;;;;;;3.20;1.35;;;7.50;48.60;;;;;;4944552;28;19926;-46
2023/01/17 11:50:43;;;;;;;2.80;1.10;;;7.50;47.20;;;;;;4942958;28;20495;-46
2023/01/17 11:53:21;;;;;;;3.92;1.00;;;7.40;46.80;;;;;;4953056;28;20051;-51
2023/01/17 11:55:57;;;;;;;4.10;1.30;;;7.40;46.20;;;;;;4958487;28;20057;-46
2023/01/17 11:58:27;;;;;;;3.10;1.00;;;7.40;45.90;;;;;;4956753;28;20488;-44
2023/01/17 12:01:09;;;;;;;2.42;0.93;;;7.30;46.10;;;;;;4942388;28;20051;-47
2023/01/17 12:04:02;;;;;;;4.78;1.27;;;7.30;46.10;;;;;;4941960;28;20480;-45
2023/01/17 12:06:38;;;;;;;5.10;1.27;;;7.30;46.40;;;;;;4935385;28;20058;-50
2023/01/17 12:09:21;;;;;;;2.55;0.88;;;7.30;46.90;;;;;;4943565;28;20446;-47
2023/01/17 12:14:50;;;;;;;3.50;1.10;;;7.30;47.30;;;;;;4948314;28;20419;-46
2023/01/17 12:17:29;;;;;;;2.38;1.10;;;7.40;47.30;;;;;;4939757;28;20461;-45
2023/01/17 12:20:03;;;;;;;3.08;1.25;;;7.40;47.30;;;;;;4932499;28;20059;-48
2023/01/17 12:22:47;;;;;;;3.92;1.75;;;7.40;47.30;;;;;;4941125;28;20058;-48
2023/01/17 12:25:47;;;;;;;3.75;1.85;;;7.50;47.50;;;;;;4943980;28;20528;-45
2023/01/17 12:28:45;;;;;;;13.30;4.00;;;7.50;47.50;;;;;;4954887;28;20534;-48
2023/01/17 12:31:26;;;;;;;4.65;2.05;;;7.50;47.60;;;;;;4940622;28;20055;-44
2023/01/17 12:33:57;;;;;;;3.03;1.10;;;7.60;47.60;;;;;;4945914;28;20070;-48
2023/01/17 12:36:45;;;;;;;3.13;0.90;;;7.60;47.70;;;;;;4950097;28;20430;-47
2023/01/17 12:39:15;;;;;;;5.25;0.93;;;7.60;47.70;;;;;;4954860;28;20059;-47
2023/01/17 12:41:56;;;;;;;2.83;1.13;;;7.60;47.80;;;;;;4954010;28;20055;-48
2023/01/17 12:44:38;;;;;;;3.80;0.93;;;7.60;47.70;;;;;;4952921;28;21372;-48
2023/01/17 12:47:07;;;;;;;3.38;0.90;;;7.70;47.90;;;;;;4949031;28;20494;-48
2023/01/17 12:49:42;;;;;;;1.67;0.70;;;7.70;47.90;;;;;;4949231;28;20066;-46
2023/01/17 12:52:18;;;;;;;2.20;0.90;;;7.70;47.90;;;;;;4950700;28;20055;-47
2023/01/17 12:54:49;;;;;;;3.35;1.08;;;7.70;47.90;;;;;;4953337;28;20055;-50
2023/01/17 12:57:23;;;;;;;4.32;1.10;;;7.70;47.90;;;;;;4944794;28;20403;-46
2023/01/17 12:59:58;;;;;;;3.60;1.05;;;7.70;47.90;;;;;;4943738;28;20062;-46
2023/01/17 13:02:34;;;;;;;2.97;1.05;;;7.80;47.90;;;;;;4944054;28;20051;-44
2023/01/17 13:05:07;;;;;;;3.70;1.35;;;7.80;47.90;;;;;;4942896;28;20415;-44
2023/01/17 13:07:43;;;;;;;2.92;1.23;;;7.80;47.90;;;;;;4941411;28;20055;-46
2023/01/17 13:10:24;;;;;;;5.18;1.08;;;7.80;47.70;;;;;;4941592;28;20384;-47
2023/01/17 13:12:51;;;;;;;1.35;0.73;;;7.80;47.70;;;;;;4942362;28;20055;-45
2023/01/17 13:15:22;;;;;;;1.17;0.85;;;7.80;47.80;;;;;;4942077;28;20066;-47
2023/01/17 13:17:55;;;;;;;2.65;1.13;;;7.80;47.70;;;;;;4949308;28;20051;-46
2023/01/17 13:20:30;;;;;;;2.30;1.00;;;7.80;47.60;;;;;;4943462;28;20051;-46
2023/01/17 13:23:11;;;;;;;2.13;1.10;;;7.80;47.50;;;;;;4942068;28;20055;-47
2023/01/17 13:25:45;;;;;;;3.22;1.17;;;7.80;47.40;;;;;;4939544;28;20067;-45
2023/01/17 13:28:22;;;;;;;3.20;0.90;;;7.80;47.30;;;;;;4945665;28;20172;-49
2023/01/17 13:31:12;;;;;;;4.38;1.00;;;7.90;47.40;;;;;;4941271;28;20113;-44
2023/01/17 13:33:51;;;;;;;5.85;0.95;;;7.90;47.30;;;;;;4941347;28;20063;-45
2023/01/17 13:36:40;;;;;;;3.17;0.80;;;7.90;47.20;;;;;;4942355;28;20063;-46
2023/01/17 13:39:28;;;;;;;2.58;0.75;;;7.80;47.10;;;;;;4944602;28;20055;-46
2023/01/17 13:42:09;;;;;;;1.80;0.50;;;7.90;47.10;;;;;;4945817;28;20427;-47
2023/01/17 13:44:36;;;;;;;2.50;0.90;;;7.90;47.00;;;;;;4941598;28;20062;-47
2023/01/17 13:47:06;;;;;;;2.40;0.70;;;7.90;47.10;;;;;;4941686;28;20055;-45
2023/01/17 13:49:44;;;;;;;5.13;0.90;;;7.80;46.90;;;;;;4942594;28;20062;-47
2023/01/17 13:52:30;;;;;;;4.13;1.20;;;7.80;46.70;;;;;;4941644;28;20062;-46
2023/01/17 13:54:59;;;;;;;5.05;1.15;;;7.90;46.60;;;;;;4940366;28;20059;-50
2023/01/17 13:57:42;;;;;;;2.92;0.75;;;7.80;46.70;;;;;;4941873;28;20063;-48
2023/01/17 14:00:58;;;;;;;3.72;0.93;;;7.80;46.60;;;;;;4942477;28;20059;-47
2023/01/17 14:04:04;;;;;;;1.67;0.70;;;7.90;46.80;;;;;;4943696;28;20055;-45
2023/01/17 14:06:39;;;;;;;3.58;1.10;;;7.90;46.90;;;;;;4939950;28;20062;-47
2023/01/17 14:09:14;;;;;;;4.43;1.00;;;7.80;46.90;;;;;;4941324;28;20059;-48
2023/01/17 14:11:58;;;;;;;7.57;1.38;;;7.80;46.80;;;;;;4942859;28;20051;-47
2023/01/17 14:14:50;;;;;;;2.20;1.08;;;7.80;46.80;;;;;;4943564;28;20430;-49
2023/01/17 14:17:55;;;;;;;4.45;1.33;;;7.80;46.80;;;;;;4941565;28;20055;-47
2023/01/17 14:20:50;;;;;;;;;;;7.80;47.00;;;;;;4943315;28;20055;-46
2023/01/17 14:23:53;;;;;;;4.53;1.25;;;7.80;47.30;;;;;;4943398;28;20362;-45
2023/01/17 14:26:36;;;;;;;2.15;1.08;;;7.80;47.20;;;;;;4943532;28;20082;-46
2023/01/17 14:29:39;;;;;;;4.13;1.10;;;7.80;47.30;;;;;;5024858;28;20054;-48
2023/01/17 14:32:10;;;;;;;5.95;1.52;;;7.80;47.40;;;;;;5023402;28;20060;-47
2023/01/17 14:34:37;;;;;;;3.13;1.60;;;7.80;47.50;;;;;;5023151;28;20478;-46
2023/01/17 14:37:14;;;;;;;2.58;1.58;;;7.70;47.60;;;;;;5024692;28;20064;-46
2023/01/17 14:39:46;;;;;;;5.57;1.70;;;7.70;47.70;;;;;;5021744;28;20061;-48
2023/01/17 14:42:18;;;;;;;2.97;1.27;;;7.70;47.80;;;;;;5024058;28;20053;-45
2023/01/17 14:44:47;;;;;;;5.70;1.40;;;7.70;47.80;;;;;;5021151;28;20060;-44
2023/01/17 14:47:16;;;;;;;4.57;1.42;;;7.60;47.80;;;;;;5022166;28;20060;-49
2023/01/17 14:49:43;;;;;;;3.50;1.70;;;7.60;47.80;;;;;;5023493;28;20065;-45
2023/01/17 14:52:16;;;;;;;3.47;1.50;;;7.60;47.80;;;;;;5024554;28;20049;-47
2023/01/17 14:54:50;;;;;;;3.38;1.40;;;7.60;47.90;;;;;;5023247;28;20060;-43
2023/01/17 14:57:27;;;;;;;4.00;1.40;;;7.60;47.90;;;;;;5024639;28;20064;-48
2023/01/17 15:00:13;;;;;;;4.28;1.73;;;7.60;47.90;;;;;;5023154;28;20053;-48
2023/01/17 15:02:42;;;;;;;2.40;1.00;;;7.60;47.80;;;;;;5022041;28;20050;-46